Time;durP1;ratioP1;P1;durP2;ratioP2;P2;SDS_P1;SDS_P2;PMS_P1;PMS_P2;Temp;Humidity;BMP_temperature;BMP_pressure;BME280_temperature;BME280_humidity;BME280_pressure;Samples;Min_cycle;Max_cycle;Signal;HPM_P1;HPM_P2
2021/08/15 00:02:14;;;;;;;6.78;4.22;;;;;;;18.80;69.49;100652.06;4990055;28;20041;-81
2021/08/15 00:04:39;;;;;;;7.88;4.30;;;;;;;18.78;69.92;100653.91;4956045;28;20047;-81
2021/08/15 00:07:06;;;;;;;6.97;4.68;;;;;;;18.66;71.19;100654.38;4988466;28;20053;-81
2021/08/15 00:09:31;;;;;;;7.30;4.72;;;;;;;18.66;70.09;100649.03;4970619;28;20042;-81
2021/08/15 00:11:57;;;;;;;10.32;5.18;;;;;;;18.58;70.60;100651.13;4989181;28;20042;-81
2021/08/15 00:14:22;;;;;;;7.13;4.50;;;;;;;18.47;72.08;100653.28;4988541;28;20125;-81
2021/08/15 00:16:48;;;;;;;6.90;4.35;;;;;;;18.31;72.43;100652.97;4989454;28;20026;-81
2021/08/15 00:19:13;;;;;;;15.85;5.03;;;;;;;18.31;71.85;100648.53;4983744;28;20038;-81
2021/08/15 00:21:39;;;;;;;6.28;4.28;;;;;;;18.31;71.67;100656.56;4988381;28;20500;-81
2021/08/15 00:24:05;;;;;;;6.93;4.13;;;;;;;18.28;71.95;100650.44;4989970;28;20058;-81
2021/08/15 00:26:31;;;;;;;7.22;5.10;;;;;;;18.18;72.77;100647.22;4986635;28;20038;-81
2021/08/15 00:28:57;;;;;;;8.57;4.40;;;;;;;18.07;73.40;100652.94;4988783;28;20035;-80
2021/08/15 00:31:25;;;;;;;7.28;5.30;;;;;;;17.95;74.47;100650.72;4989032;28;20057;-80
2021/08/15 00:33:51;;;;;;;6.03;4.80;;;;;;;17.95;73.61;100643.56;4983949;28;20031;-80
2021/08/15 00:36:16;;;;;;;9.25;5.15;;;;;;;17.99;73.44;100651.47;4987737;28;20169;-80
2021/08/15 00:38:41;;;;;;;6.72;3.90;;;;;;;17.95;73.77;100661.41;4986852;28;20065;-80
2021/08/15 00:41:07;;;;;;;7.40;4.22;;;;;;;17.87;73.58;100652.78;4990163;28;20043;-80
2021/08/15 00:43:32;;;;;;;7.05;3.63;;;;;;;17.90;73.79;100658.00;4987933;28;20042;-80
2021/08/15 00:45:58;;;;;;;8.50;4.38;;;;;;;17.87;73.44;100658.13;4985176;28;20039;-80
2021/08/15 00:48:24;;;;;;;8.52;5.43;;;;;;;17.88;73.42;100658.03;4991980;28;20034;-81
2021/08/15 00:50:49;;;;;;;10.05;5.65;;;;;;;17.88;73.31;100660.72;4986827;28;20035;-80
2021/08/15 00:53:14;;;;;;;9.75;6.78;;;;;;;17.80;74.91;100656.56;4986912;28;20417;-80
2021/08/15 00:55:41;;;;;;;10.98;5.50;;;;;;;17.78;74.69;100671.72;4986995;28;20090;-80
2021/08/15 00:58:09;;;;;;;7.47;4.90;;;;;;;17.71;75.92;100663.94;4970319;28;20031;-80
2021/08/15 01:00:36;;;;;;;9.38;5.32;;;;;;;17.65;75.42;100665.94;4985231;28;20125;-80
2021/08/15 01:03:01;;;;;;;6.25;4.18;;;;;;;17.65;74.78;100660.59;4933886;28;20493;-80
2021/08/15 01:05:28;;;;;;;8.48;4.55;;;;;;;17.61;74.46;100666.97;4969722;28;20048;-80
2021/08/15 01:07:53;;;;;;;8.38;4.65;;;;;;;17.52;75.05;100660.13;4987415;28;20047;-79
2021/08/15 01:10:19;;;;;;;7.25;4.90;;;;;;;17.47;74.83;100659.41;4985733;28;20121;-80
2021/08/15 01:12:45;;;;;;;6.15;4.53;;;;;;;17.46;75.00;100658.53;4986734;28;20093;-80
2021/08/15 01:15:11;;;;;;;13.30;6.28;;;;;;;17.47;75.80;100665.59;4987527;28;20027;-80
2021/08/15 01:17:37;;;;;;;8.35;4.72;;;;;;;17.47;75.78;100654.91;4985744;28;20057;-81
2021/08/15 01:20:03;;;;;;;8.27;4.50;;;;;;;17.49;75.44;100652.22;4970032;28;20546;-80
2021/08/15 01:22:39;;;;;;;6.63;4.70;;;;;;;17.45;75.43;100662.13;4971075;28;20109;-81
2021/08/15 01:25:06;;;;;;;6.35;4.15;;;;;;;17.36;75.45;100665.06;4984514;28;20038;-81
2021/08/15 01:27:39;;;;;;;6.75;4.55;;;;;;;17.39;75.30;100662.31;4985989;28;20049;-81
2021/08/15 01:30:07;;;;;;;6.13;4.68;;;;;;;17.42;74.85;100669.34;4982599;28;20076;-81
2021/08/15 01:32:32;;;;;;;7.32;3.67;;;;;;;17.45;75.13;100661.25;4969074;28;20548;-81
2021/08/15 01:35:01;;;;;;;7.85;4.22;;;;;;;17.46;75.05;100669.19;4949054;28;20039;-80
2021/08/15 01:37:26;;;;;;;6.97;5.05;;;;;;;17.47;75.19;100670.94;4986799;28;20039;-81
2021/08/15 01:39:52;;;;;;;7.20;4.70;;;;;;;17.47;75.85;100665.59;4985614;28;20054;-81
2021/08/15 01:42:18;;;;;;;5.95;4.47;;;;;;;17.50;75.36;100668.19;4988336;28;20044;-81
2021/08/15 01:44:43;;;;;;;7.70;4.65;;;;;;;17.57;75.34;100676.84;4987319;28;20086;-81
2021/08/15 01:47:08;;;;;;;7.22;4.85;;;;;;;17.62;75.51;100674.03;4968588;28;20050;-81
2021/08/15 01:49:34;;;;;;;7.65;4.93;;;;;;;17.64;75.41;100678.41;4949204;28;20043;-80
2021/08/15 01:51:59;;;;;;;8.82;4.45;;;;;;;17.74;74.98;100684.31;4970712;28;20517;-81
2021/08/15 01:54:24;;;;;;;6.72;4.97;;;;;;;17.80;74.59;100678.78;4970281;28;20034;-81
2021/08/15 01:56:50;;;;;;;8.35;5.32;;;;;;;17.88;74.22;100684.75;4988018;28;20636;-81
2021/08/15 01:59:15;;;;;;;8.02;5.80;;;;;;;17.95;74.13;100683.63;4986533;28;20070;-80
2021/08/15 02:01:40;;;;;;;7.68;4.80;;;;;;;18.02;73.69;100683.41;4990467;28;20039;-81
2021/08/15 02:04:06;;;;;;;8.35;5.40;;;;;;;18.07;73.32;100684.13;4988129;28;20047;-81
2021/08/15 02:06:31;;;;;;;6.20;4.53;;;;;;;18.03;74.04;100685.16;4952216;28;20022;-81
2021/08/15 02:08:56;;;;;;;6.28;4.68;;;;;;;17.97;73.86;100688.91;4987453;28;20042;-81
2021/08/15 02:11:22;;;;;;;5.90;4.47;;;;;;;18.02;73.71;100686.94;4991142;28;20038;-81
2021/08/15 02:13:47;;;;;;;8.02;5.10;;;;;;;17.98;73.68;100684.44;4989656;28;20038;-81
2021/08/15 02:16:14;;;;;;;5.82;4.10;;;;;;;17.99;73.72;100687.03;4973708;28;20035;-81
2021/08/15 02:18:40;;;;;;;6.68;4.70;;;;;;;18.01;73.37;100695.03;4992026;28;20345;-81
2021/08/15 02:21:05;;;;;;;6.68;4.95;;;;;;;17.99;73.21;100689.72;4989962;28;20039;-81
2021/08/15 02:23:30;;;;;;;8.00;5.03;;;;;;;17.98;73.52;100684.44;4991532;28;20043;-81
2021/08/15 02:25:56;;;;;;;6.88;4.63;;;;;;;18.04;73.39;100684.22;4958942;28;20038;-81
2021/08/15 02:28:21;;;;;;;6.43;4.97;;;;;;;18.04;72.95;100684.22;4990017;28;20034;-81
2021/08/15 02:30:47;;;;;;;7.60;5.05;;;;;;;18.03;73.35;100685.16;4991006;28;20228;-81
2021/08/15 02:33:12;;;;;;;7.63;4.88;;;;;;;18.05;73.12;100680.63;4990127;28;20412;-81
2021/08/15 02:35:37;;;;;;;7.55;5.20;;;;;;;18.07;73.02;100686.78;4971523;28;20085;-80
2021/08/15 02:38:03;;;;;;;7.57;4.82;;;;;;;18.10;72.94;100694.69;4991199;28;20105;-81
2021/08/15 02:40:28;;;;;;;6.70;4.90;;;;;;;18.10;72.38;100684.91;4973724;28;20038;-81
2021/08/15 02:42:54;;;;;;;7.00;5.10;;;;;;;18.02;73.30;100689.59;4970330;28;20046;-81
2021/08/15 02:45:23;;;;;;;8.90;5.10;;;;;;;18.00;72.77;100685.25;4973117;28;20061;-81
2021/08/15 02:47:48;;;;;;;11.07;5.78;;;;;;;17.99;72.90;100679.03;4958366;28;20039;-81
2021/08/15 02:50:15;;;;;;;8.13;4.47;;;;;;;18.01;72.76;100682.53;4988601;28;20077;-81
2021/08/15 02:52:41;;;;;;;8.55;5.13;;;;;;;18.03;72.27;100680.69;4990634;28;20037;-81
2021/08/15 02:55:07;;;;;;;8.50;5.07;;;;;;;18.00;72.31;100680.81;4989626;28;20113;-81
2021/08/15 02:57:32;;;;;;;9.07;5.03;;;;;;;17.91;73.09;100684.63;4970562;28;20030;-81
2021/08/15 02:59:57;;;;;;;8.30;4.97;;;;;;;17.88;72.73;100683.88;4989963;28;20042;-80
2021/08/15 03:02:23;;;;;;;6.47;4.75;;;;;;;17.88;72.78;100679.41;4989780;28;20038;-80
2021/08/15 03:04:49;;;;;;;8.90;5.45;;;;;;;17.84;72.65;100671.53;4988275;28;20038;-80
2021/08/15 03:07:16;;;;;;;8.18;4.72;;;;;;;17.82;72.52;100681.44;4990167;28;20145;-81
2021/08/15 03:09:42;;;;;;;7.10;4.93;;;;;;;17.78;72.65;100680.59;4988126;28;20061;-80
2021/08/15 03:12:08;;;;;;;9.65;5.63;;;;;;;17.75;72.64;100675.38;4984292;28;20114;-81
2021/08/15 03:14:33;;;;;;;7.40;5.20;;;;;;;17.74;72.86;100674.50;4986286;28;20035;-81
2021/08/15 03:16:59;;;;;;;7.63;5.70;;;;;;;17.73;72.70;100667.41;4989266;28;20031;-82
2021/08/15 03:19:24;;;;;;;8.80;5.57;;;;;;;17.75;72.50;100670.91;4990649;28;20117;-81
2021/08/15 03:21:49;;;;;;;8.07;5.18;;;;;;;17.74;72.56;100660.28;4987484;28;20529;-80
2021/08/15 03:24:15;;;;;;;7.13;5.07;;;;;;;17.74;72.75;100662.97;4989350;28;20370;-80
2021/08/15 03:26:43;;;;;;;6.70;4.78;;;;;;;17.65;72.89;100661.44;4987950;28;20042;-81
2021/08/15 03:29:13;;;;;;;8.75;5.70;;;;;;;17.56;73.57;100661.78;4984128;28;20039;-80
2021/08/15 03:31:38;;;;;;;9.48;5.75;;;;;;;17.36;74.22;100662.41;4970533;28;20093;-81
2021/08/15 03:34:04;;;;;;;7.00;4.40;;;;;;;17.26;74.39;100655.63;4991001;28;20034;-81
2021/08/15 03:36:29;;;;;;;8.48;5.43;;;;;;;17.16;75.00;100659.50;4988921;28;20038;-79
2021/08/15 03:38:54;;;;;;;8.75;6.20;;;;;;;17.08;76.08;100659.72;4999091;28;20038;-79
2021/08/15 03:41:20;;;;;;;7.25;5.38;;;;;;;17.03;76.42;100659.03;4997990;28;20046;-79
2021/08/15 03:43:45;;;;;;;7.78;4.93;;;;;;;16.99;76.52;100662.69;4990507;28;20043;-80
2021/08/15 03:46:10;;;;;;;7.93;4.43;;;;;;;17.06;75.97;100662.47;4989610;28;20082;-79
2021/08/15 03:48:36;;;;;;;6.85;4.60;;;;;;;17.17;75.44;100666.59;4988864;28;20409;-79
2021/08/15 03:51:01;;;;;;;7.20;5.32;;;;;;;17.21;75.42;100662.91;4988881;28;20485;-80
2021/08/15 03:53:26;;;;;;;7.13;5.03;;;;;;;17.23;75.25;100661.94;4972737;28;20058;-79
2021/08/15 03:55:52;;;;;;;7.50;5.57;;;;;;;17.29;75.51;100660.84;4990742;28;20034;-79
2021/08/15 03:58:17;;;;;;;7.35;5.10;;;;;;;17.32;75.23;100663.44;4989186;28;20034;-79
2021/08/15 04:00:43;;;;;;;10.63;5.93;;;;;;;17.26;75.71;100666.28;4989751;28;20046;-79
2021/08/15 04:03:09;;;;;;;10.18;5.05;;;;;;;17.28;75.27;100664.47;4957056;28;20034;-79
2021/08/15 04:05:35;;;;;;;8.95;5.40;;;;;;;17.32;74.80;100668.78;4970268;28;20463;-79
2021/08/15 04:08:01;;;;;;;8.73;5.78;;;;;;;17.38;74.64;100660.56;4971567;28;20039;-79
2021/08/15 04:10:26;;;;;;;6.38;4.88;;;;;;;17.47;74.23;100660.25;4987316;28;20038;-79
2021/08/15 04:12:51;;;;;;;6.57;5.28;;;;;;;17.45;74.88;100663.94;4949689;28;20043;-79
2021/08/15 04:15:17;;;;;;;9.55;5.93;;;;;;;17.37;75.49;100658.84;4989506;28;20038;-79
2021/08/15 04:17:43;;;;;;;8.13;5.70;;;;;;;17.43;74.73;100661.31;4974559;28;20038;-79
2021/08/15 04:20:08;;;;;;;8.60;5.85;;;;;;;17.49;74.79;100660.22;4994358;28;20051;-79
2021/08/15 04:22:34;;;;;;;8.93;5.70;;;;;;;17.55;74.01;100656.47;4993698;28;20047;-79
2021/08/15 04:24:59;;;;;;;8.07;5.70;;;;;;;17.59;73.54;100655.47;4995127;28;20038;-79
2021/08/15 04:27:24;;;;;;;10.00;5.82;;;;;;;17.62;73.17;100658.03;4995813;28;20038;-79
2021/08/15 04:29:50;;;;;;;8.40;5.82;;;;;;;17.62;73.38;100653.56;4993696;28;20412;-79
2021/08/15 04:32:15;;;;;;;8.77;6.03;;;;;;;17.60;73.63;100659.88;4977529;28;20046;-79
2021/08/15 04:34:40;;;;;;;8.77;5.50;;;;;;;17.53;73.76;100657.41;4956022;29;20099;-79
2021/08/15 04:37:06;;;;;;;8.57;6.10;;;;;;;17.46;74.13;100660.31;4993535;28;20097;-79
2021/08/15 04:39:31;;;;;;;9.70;6.25;;;;;;;17.44;74.40;100663.03;4994831;28;20401;-79
2021/08/15 04:41:57;;;;;;;9.75;6.35;;;;;;;17.50;73.97;100660.19;4993914;28;20429;-79
2021/08/15 04:44:22;;;;;;;8.57;6.05;;;;;;;17.61;73.41;100666.97;4996019;28;20516;-79
2021/08/15 04:46:49;;;;;;;7.63;5.90;;;;;;;17.61;73.66;100670.50;4989392;28;20038;-79
2021/08/15 04:49:14;;;;;;;9.10;5.60;;;;;;;17.62;73.57;100668.69;4993488;28;20069;-79
2021/08/15 04:51:39;;;;;;;12.50;5.85;;;;;;;17.61;73.96;100666.97;4993016;28;20039;-79
2021/08/15 04:54:04;;;;;;;7.70;5.95;;;;;;;17.58;73.97;100669.72;4953147;28;20121;-79
2021/08/15 04:56:30;;;;;;;9.35;6.15;;;;;;;17.60;73.84;100660.72;4984895;28;20050;-79
2021/08/15 04:58:55;;;;;;;8.23;5.50;;;;;;;17.70;73.02;100663.97;4989208;28;20034;-79
2021/08/15 05:01:20;;;;;;;7.10;6.00;;;;;;;17.74;72.96;100653.16;4986832;28;20180;-79
2021/08/15 05:03:46;;;;;;;7.95;6.50;;;;;;;17.72;73.08;100660.34;4990009;28;20030;-79
2021/08/15 05:06:11;;;;;;;8.82;5.70;;;;;;;17.69;73.30;100665.78;4933269;29;20535;-79
2021/08/15 05:08:36;;;;;;;8.45;6.05;;;;;;;17.72;73.25;100662.13;4970628;28;20440;-79
2021/08/15 05:11:03;;;;;;;9.63;6.25;;;;;;;17.69;73.99;100664.91;4974002;28;20042;-79
2021/08/15 05:13:28;;;;;;;9.40;5.60;;;;;;;17.66;73.73;100663.22;4990611;28;20489;-79
2021/08/15 05:15:54;;;;;;;8.45;5.72;;;;;;;17.74;73.51;100665.63;4984887;28;20071;-79
2021/08/15 05:18:20;;;;;;;9.45;5.95;;;;;;;17.78;73.52;100661.91;4986002;28;20169;-79
2021/08/15 05:20:45;;;;;;;7.07;5.20;;;;;;;17.88;72.67;100658.03;4968105;28;20078;-79
2021/08/15 05:23:12;;;;;;;10.98;6.53;;;;;;;17.98;72.05;100669.28;4978747;28;20042;-79
2021/08/15 05:25:37;;;;;;;8.73;6.53;;;;;;;18.08;71.99;100656.50;4984177;28;20401;-79
2021/08/15 05:28:04;;;;;;;9.20;6.40;;;;;;;18.20;71.50;100653.38;4983780;28;20042;-79
2021/08/15 05:30:30;;;;;;;10.65;6.35;;;;;;;18.38;70.97;100657.19;4962038;28;20435;-79
2021/08/15 05:32:55;;;;;;;8.95;6.75;;;;;;;18.53;69.98;100661.09;4964165;28;20073;-79
2021/08/15 05:35:21;;;;;;;8.50;6.18;;;;;;;18.60;70.09;100655.47;4980438;28;20484;-79
2021/08/15 05:37:46;;;;;;;8.05;6.03;;;;;;;18.61;69.01;100656.34;4982241;28;20105;-79
2021/08/15 05:40:12;;;;;;;10.48;6.47;;;;;;;18.59;68.81;100655.53;4979856;28;20052;-79
2021/08/15 05:42:37;;;;;;;11.20;6.00;;;;;;;18.65;68.74;100652.59;4979178;28;20125;-79
2021/08/15 05:45:03;;;;;;;12.02;6.60;;;;;;;18.70;68.91;100655.13;4980576;28;20038;-79
2021/08/15 05:47:28;;;;;;;7.78;6.15;;;;;;;18.75;69.08;100659.38;4956736;28;20038;-79
2021/08/15 05:49:54;;;;;;;10.43;6.70;;;;;;;18.91;68.41;100653.47;4973072;28;20047;-79
2021/08/15 05:52:19;;;;;;;8.90;6.57;;;;;;;19.07;66.82;100665.28;4956879;28;20038;-79
2021/08/15 05:54:44;;;;;;;9.30;6.05;;;;;;;19.21;66.99;100665.63;4970633;28;20113;-79
2021/08/15 05:57:10;;;;;;;9.60;6.22;;;;;;;19.34;66.22;100662.47;4967988;28;20038;-79
2021/08/15 05:59:35;;;;;;;8.63;5.75;;;;;;;19.35;66.39;100657.03;4955023;28;20043;-79
2021/08/15 06:02:02;;;;;;;9.82;6.85;;;;;;;19.26;66.33;100658.28;4980469;28;20038;-79
2021/08/15 06:04:28;;;;;;;10.25;6.53;;;;;;;19.24;66.57;100657.47;4980569;28;20073;-79
2021/08/15 06:06:53;;;;;;;8.10;5.90;;;;;;;19.32;65.99;100661.66;4979571;28;20058;-79
2021/08/15 06:09:18;;;;;;;9.35;6.15;;;;;;;19.41;66.32;100664.84;4949695;28;20421;-79
2021/08/15 06:11:44;;;;;;;11.02;7.18;;;;;;;19.58;65.54;100661.47;4982725;28;20038;-79
2021/08/15 06:14:09;;;;;;;10.57;6.43;;;;;;;19.62;65.38;100662.19;4975420;28;20054;-79
2021/08/15 06:16:35;;;;;;;8.52;6.57;;;;;;;19.63;64.71;100664.81;4982256;28;20039;-79
2021/08/15 06:19:00;;;;;;;12.00;6.45;;;;;;;19.67;64.43;100662.91;4982295;28;20041;-79
2021/08/15 06:21:25;;;;;;;10.00;5.65;;;;;;;19.71;64.68;100664.53;4984192;28;20039;-79
2021/08/15 06:23:51;;;;;;;10.27;6.40;;;;;;;19.73;64.88;100656.41;4984797;28;20034;-79
2021/08/15 06:26:16;;;;;;;10.52;5.68;;;;;;;19.80;64.46;100660.59;4982166;28;20042;-79
2021/08/15 06:28:41;;;;;;;8.05;5.45;;;;;;;19.89;64.41;100665.56;4965920;28;20077;-79
2021/08/15 06:31:07;;;;;;;11.85;6.32;;;;;;;19.94;64.23;100666.25;4984858;28;20109;-79
2021/08/15 06:33:32;;;;;;;11.00;7.07;;;;;;;19.96;64.26;100660.81;4982579;28;20043;-78
2021/08/15 06:35:57;;;;;;;11.23;6.47;;;;;;;19.99;64.22;100656.22;4985265;28;20130;-79
2021/08/15 06:38:23;;;;;;;10.93;6.35;;;;;;;20.00;64.31;100652.59;4985803;28;20066;-79
2021/08/15 06:40:48;;;;;;;10.48;6.55;;;;;;;20.05;64.55;100655.94;4965870;28;20645;-79
2021/08/15 06:43:13;;;;;;;8.80;6.00;;;;;;;20.16;63.91;100657.28;4984815;28;20045;-79
2021/08/15 06:45:40;;;;;;;11.27;6.45;;;;;;;20.22;64.27;100665.03;4985024;28;20077;-79
2021/08/15 06:48:06;;;;;;;9.30;6.10;;;;;;;20.26;64.19;100661.28;4965337;28;20437;-76
2021/08/15 06:50:32;;;;;;;9.98;6.05;;;;;;;20.37;63.84;100656.31;4984451;28;20038;-79
2021/08/15 06:52:57;;;;;;;9.57;6.15;;;;;;;20.46;63.67;100666.66;4979972;28;20410;-79
2021/08/15 06:55:23;;;;;;;12.77;6.88;;;;;;;20.51;63.98;100648.53;4968125;28;20029;-80
2021/08/15 06:57:48;;;;;;;10.27;5.95;;;;;;;20.62;62.81;100652.53;4985019;28;20742;-79
2021/08/15 07:00:14;;;;;;;10.98;6.25;;;;;;;20.71;62.90;100654.81;4971194;28;20559;-79
2021/08/15 07:02:43;;;;;;;8.77;6.40;;;;;;;20.76;62.40;100658.16;4968196;28;20524;-79
2021/08/15 07:05:10;;;;;;;8.63;5.82;;;;;;;20.86;61.91;100654.09;4947339;28;20650;-79
2021/08/15 07:07:37;;;;;;;12.45;5.22;;;;;;;20.89;61.57;100650.41;4984887;28;20050;-79
2021/08/15 07:10:06;;;;;;;8.50;4.75;;;;;;;21.00;61.71;100657.00;4983727;28;20031;-79
2021/08/15 07:12:31;;;;;;;12.55;5.70;;;;;;;20.99;60.96;100652.59;4985157;28;20034;-79
2021/08/15 07:14:56;;;;;;;8.93;4.90;;;;;;;21.06;60.08;100650.47;4986362;28;20508;-79
2021/08/15 07:17:22;;;;;;;8.40;5.70;;;;;;;21.13;60.68;100659.09;4966390;28;20508;-79
2021/08/15 07:19:47;;;;;;;9.02;5.45;;;;;;;21.13;59.79;100657.28;4985552;28;20030;-79
2021/08/15 07:22:12;;;;;;;7.32;4.13;;;;;;;21.25;59.25;100653.16;4987191;28;20046;-79
2021/08/15 07:24:38;;;;;;;7.18;5.15;;;;;;;21.36;58.78;100653.50;4985111;28;20141;-79
2021/08/15 07:27:03;;;;;;;7.35;4.80;;;;;;;21.40;58.44;100656.91;4986418;28;20066;-79
2021/08/15 07:29:28;;;;;;;10.25;4.90;;;;;;;21.42;58.62;100653.22;4955110;28;20484;-79
2021/08/15 07:31:54;;;;;;;9.63;4.70;;;;;;;21.51;58.25;100657.28;4984684;28;20061;-79
2021/08/15 07:34:20;;;;;;;7.20;4.75;;;;;;;21.56;57.93;100654.34;4969804;28;20121;-79
2021/08/15 07:36:45;;;;;;;8.70;4.18;;;;;;;21.61;57.84;100649.59;4986861;28;20125;-79
2021/08/15 07:39:11;;;;;;;7.22;4.72;;;;;;;21.75;57.60;100654.31;4984821;28;20046;-79
2021/08/15 07:41:37;;;;;;;9.93;4.40;;;;;;;21.86;58.05;100650.13;4986683;28;20038;-79
2021/08/15 07:44:02;;;;;;;9.13;4.43;;;;;;;22.00;57.21;100646.72;4986305;28;20050;-79
2021/08/15 07:46:29;;;;;;;10.70;4.75;;;;;;;22.10;56.19;100639.03;4984346;28;20043;-79
2021/08/15 07:48:54;;;;;;;9.25;4.55;;;;;;;22.17;56.85;100645.84;4970062;28;20033;-79
2021/08/15 07:51:20;;;;;;;11.57;4.72;;;;;;;22.23;56.05;100644.69;4985963;28;20039;-79
2021/08/15 07:53:45;;;;;;;10.02;4.78;;;;;;;22.35;56.29;100649.41;4984785;28;20077;-79
2021/08/15 07:56:10;;;;;;;7.10;4.13;;;;;;;22.44;55.59;100645.34;4947553;28;20035;-79
2021/08/15 07:58:36;;;;;;;13.70;5.22;;;;;;;22.48;54.91;100646.94;4985752;28;20042;-79
2021/08/15 08:01:02;;;;;;;8.93;5.00;;;;;;;22.57;55.05;100635.66;4984665;28;20081;-79
2021/08/15 08:03:27;;;;;;;11.93;4.57;;;;;;;22.68;54.84;100641.31;4986964;28;20038;-79
2021/08/15 08:05:53;;;;;;;9.05;3.95;;;;;;;22.91;54.58;100636.50;4985089;28;20105;-79
2021/08/15 08:08:18;;;;;;;9.45;4.35;;;;;;;23.08;54.08;100638.25;4984661;28;20087;-79
2021/08/15 08:10:45;;;;;;;7.93;4.20;;;;;;;23.22;53.59;100634.81;4986960;28;20038;-79
2021/08/15 08:13:10;;;;;;;9.15;4.82;;;;;;;23.22;53.35;100635.66;4985219;28;20035;-79
2021/08/15 08:15:38;;;;;;;9.50;4.47;;;;;;;23.17;54.20;100643.16;4984458;28;20046;-79
2021/08/15 08:18:04;;;;;;;9.55;4.63;;;;;;;23.31;53.33;100636.97;4985211;28;20038;-79
2021/08/15 08:20:32;;;;;;;8.93;3.90;;;;;;;23.43;52.30;100633.56;4985609;28;20080;-79
2021/08/15 08:22:59;;;;;;;8.88;4.15;;;;;;;23.57;52.03;100636.31;4984105;28;20043;-79
2021/08/15 08:25:24;;;;;;;11.27;4.20;;;;;;;23.71;51.67;100627.44;4980325;28;20057;-79
2021/08/15 08:27:49;;;;;;;10.20;4.32;;;;;;;23.86;51.00;100632.88;4985312;28;20481;-79
2021/08/15 08:30:15;;;;;;;8.60;4.28;;;;;;;24.02;50.82;100625.59;4986450;28;20037;-79
2021/08/15 08:32:40;;;;;;;8.27;4.55;;;;;;;24.14;50.19;100624.00;4983633;28;20147;-79
2021/08/15 08:35:06;;;;;;;9.40;4.18;;;;;;;24.25;49.69;100616.09;4985282;28;20045;-79
2021/08/15 08:37:31;;;;;;;7.75;3.63;;;;;;;24.35;49.36;100614.56;4985824;28;20041;-79
2021/08/15 08:40:00;;;;;;;7.43;4.10;;;;;;;24.34;49.40;100620.06;4983722;28;20117;-79
2021/08/15 08:42:31;;;;;;;9.98;3.88;;;;;;;24.37;49.52;100625.28;4985221;28;20041;-79
2021/08/15 08:45:00;;;;;;;15.18;4.40;;;;;;;24.58;48.91;100615.00;4931230;28;20057;-79
2021/08/15 08:47:26;;;;;;;10.55;4.55;;;;;;;24.51;49.16;100619.91;4984627;28;20034;-79
2021/08/15 08:49:51;;;;;;;8.98;3.95;;;;;;;24.42;49.40;100606.97;4983873;28;20543;-79
2021/08/15 08:52:17;;;;;;;11.82;4.38;;;;;;;24.38;49.47;100609.00;4983568;28;20054;-79
2021/08/15 08:54:42;;;;;;;8.32;4.28;;;;;;;24.44;49.33;100600.56;4985640;28;20038;-79
2021/08/15 08:57:07;;;;;;;9.48;3.90;;;;;;;24.37;49.84;100604.56;4985458;28;20038;-80
2021/08/15 08:59:37;;;;;;;8.02;4.00;;;;;;;24.37;49.79;100604.56;4983404;28;20042;-79
2021/08/15 09:02:03;;;;;;;7.82;3.58;;;;;;;24.52;49.26;100600.06;4967228;28;20070;-79
2021/08/15 09:04:28;;;;;;;7.32;3.67;;;;;;;24.62;49.04;100600.34;4985550;28;20497;-79
2021/08/15 09:06:54;;;;;;;7.18;3.90;;;;;;;24.75;48.51;100593.19;4965505;28;20066;-79
2021/08/15 09:09:20;;;;;;;7.22;3.90;;;;;;;24.96;48.27;100595.47;4985045;28;20121;-79
2021/08/15 09:11:48;;;;;;;10.50;4.10;;;;;;;25.09;48.55;100588.28;4984928;28;20038;-79
2021/08/15 09:14:18;;;;;;;9.32;3.47;;;;;;;25.12;48.20;100586.25;4986064;28;20043;-79
2021/08/15 09:17:08;;;;;;;9.20;4.35;;;;;;;25.14;48.12;100586.16;4986875;28;20055;-79
2021/08/15 09:19:47;;;;;;;8.07;4.45;;;;;;;25.11;47.71;100575.56;4990102;28;20440;-79
2021/08/15 09:22:23;;;;;;;8.05;4.05;;;;;;;25.16;47.43;100576.16;4988659;28;20124;-79
2021/08/15 09:24:50;;;;;;;10.90;4.15;;;;;;;25.42;47.47;100582.53;4951498;28;20043;-79
2021/08/15 09:27:35;;;;;;;9.75;4.07;;;;;;;25.48;47.06;100575.84;4985328;28;20058;-79
2021/08/15 09:30:17;;;;;;;7.25;3.60;;;;;;;25.46;46.37;100567.81;4985419;28;20484;-79
2021/08/15 09:33:12;;;;;;;6.95;4.10;;;;;;;25.43;45.96;100572.56;4984821;28;20066;-79
2021/08/15 09:35:41;;;;;;;6.80;3.80;;;;;;;25.63;45.93;100563.13;4949776;28;20051;-79
2021/08/15 09:38:11;;;;;;;9.90;3.85;;;;;;;25.83;45.58;100564.44;4958099;28;20037;-79
2021/08/15 09:40:38;;;;;;;6.88;4.03;;;;;;;25.88;45.14;100562.31;4985050;28;20034;-80
2021/08/15 09:43:06;;;;;;;10.00;4.22;;;;;;;25.90;44.60;100571.19;4990982;28;20615;-80
2021/08/15 09:45:33;;;;;;;8.30;3.80;;;;;;;25.66;45.64;100566.47;4983209;28;20038;-80
2021/08/15 09:48:21;;;;;;;7.38;3.78;;;;;;;25.62;45.75;100554.13;4987985;28;20066;-79
2021/08/15 09:51:08;;;;;;;8.00;3.88;;;;;;;25.66;45.83;100550.25;4967284;28;20049;-79
2021/08/15 09:53:35;;;;;;;10.68;4.05;;;;;;;25.91;45.70;100545.88;4976823;28;20031;-79
2021/08/15 09:56:02;;;;;;;7.97;3.80;;;;;;;25.97;45.41;100550.88;4985886;28;20117;-81
2021/08/15 09:58:27;;;;;;;7.72;3.40;;;;;;;25.94;45.53;100546.53;4951326;28;20030;-80
2021/08/15 10:00:55;;;;;;;8.40;4.28;;;;;;;25.72;46.17;100538.16;4969749;28;20090;-80
2021/08/15 10:03:20;;;;;;;7.95;3.90;;;;;;;25.75;45.46;100536.13;4984789;28;20053;-79
2021/08/15 10:05:46;;;;;;;6.45;3.75;;;;;;;25.99;45.45;100521.84;4966819;28;20047;-80
2021/08/15 10:08:11;;;;;;;9.15;3.70;;;;;;;26.21;45.22;100532.88;4985745;28;20081;-80
2021/08/15 10:10:37;;;;;;;9.10;4.22;;;;;;;26.28;45.05;100530.63;4960062;28;20404;-80
2021/08/15 10:13:06;;;;;;;9.98;4.13;;;;;;;26.22;44.12;100534.59;4987754;28;20030;-80
2021/08/15 10:15:33;;;;;;;11.98;3.65;;;;;;;26.13;45.18;100529.88;4987183;28;20579;-80
2021/08/15 10:18:01;;;;;;;10.13;3.65;;;;;;;26.28;45.76;100522.50;4984648;28;20026;-80
2021/08/15 10:20:30;;;;;;;9.65;4.20;;;;;;;26.37;44.43;100531.78;4980204;28;20473;-80
2021/08/15 10:23:10;;;;;;;10.45;4.20;;;;;;;26.17;44.26;100520.56;4984638;28;20070;-80
2021/08/15 10:25:41;;;;;;;8.35;4.55;;;;;;;26.23;44.24;100517.41;4953451;28;20082;-80
2021/08/15 10:28:09;;;;;;;10.27;3.90;;;;;;;26.27;44.11;100519.91;4986078;28;20034;-80
2021/08/15 10:30:34;;;;;;;6.95;3.72;;;;;;;26.10;45.57;100513.00;4984285;28;20045;-80
2021/08/15 10:32:59;;;;;;;8.55;4.20;;;;;;;26.28;45.45;100516.22;4985776;28;20023;-80
2021/08/15 10:35:35;;;;;;;9.50;3.95;;;;;;;26.41;44.45;100515.22;4989826;28;20089;-80
2021/08/15 10:38:03;;;;;;;10.85;4.07;;;;;;;26.41;43.91;100517.06;4988102;28;20038;-80
2021/08/15 10:40:38;;;;;;;8.77;4.05;;;;;;;26.21;44.46;100515.81;4987563;28;20078;-80
2021/08/15 10:43:03;;;;;;;7.05;4.10;;;;;;;26.20;44.78;100504.13;4988384;28;20500;-80
2021/08/15 10:45:29;;;;;;;11.20;3.75;;;;;;;26.26;45.37;100502.81;4989430;28;20034;-80
2021/08/15 10:48:08;;;;;;;8.15;4.05;;;;;;;26.30;44.57;100504.28;4987683;28;20177;-80
2021/08/15 10:50:56;;;;;;;10.07;4.25;;;;;;;26.56;44.25;100505.13;4987285;28;20046;-80
2021/08/15 10:53:28;;;;;;;8.75;4.15;;;;;;;26.77;43.24;100499.97;4983791;28;20059;-80
2021/08/15 10:56:07;;;;;;;7.78;4.00;;;;;;;26.93;43.41;100501.53;4987042;28;20467;-80
2021/08/15 10:58:35;;;;;;;10.85;3.83;;;;;;;27.15;43.81;100498.94;4985424;28;20496;-80
2021/08/15 11:01:01;;;;;;;7.32;3.97;;;;;;;27.52;42.75;100494.31;4969536;28;20650;-80
2021/08/15 11:03:26;;;;;;;9.25;4.30;;;;;;;27.72;41.79;100487.31;4971160;28;20066;-80
2021/08/15 11:05:51;;;;;;;7.15;3.92;;;;;;;27.97;41.66;100494.41;4988810;28;20121;-80
2021/08/15 11:08:32;;;;;;;8.40;3.88;;;;;;;27.85;40.48;100489.97;4986752;28;20042;-80
2021/08/15 11:11:14;;;;;;;7.00;3.78;;;;;;;28.32;39.50;100488.00;4969129;28;20143;-80
2021/08/15 11:13:39;;;;;;;7.95;3.75;;;;;;;28.51;39.21;100487.38;4987549;28;20450;-80
2021/08/15 11:16:27;;;;;;;7.35;3.90;;;;;;;28.77;38.82;100481.66;4986185;28;20046;-80
2021/08/15 11:19:07;;;;;;;6.93;3.63;;;;;;;28.83;38.17;100475.69;4967014;28;20090;-80
2021/08/15 11:22:07;;;;;;;9.90;4.10;;;;;;;28.95;39.45;100473.78;4952938;28;20121;-80
2021/08/15 11:24:38;;;;;;;11.65;4.00;;;;;;;28.54;39.57;100475.41;4985951;28;20066;-80